Terminal Aerodrome Forecast
Issued by NWS

Home | Current Version | Previous Version | Graphics & Text | Print | Product List | Glossary On
Versions: 1 2 3 4 5 6 7 8 9 10 11 12 13 14
301
FTUS43 KMPX 261720
TAFRWF
TAF
KRWF 261720Z 2618/2718 29012G18KT P6SM SCT025
     FM270200 17004KT P6SM BKN100
     FM271200 19006KT P6SM SCT100 BKN200=

USA.gov is the U.S. government's official web portal to all federal, state and local government web resources and services.